createdAt,value
2019-01-24T00:00:12.436Z,28.60
2019-01-24T00:01:12.724Z,28.60
2019-01-24T00:02:12.423Z,26.90
2019-01-24T00:03:12.405Z,29.00
2019-01-24T00:04:16.731Z,26.50
2019-01-24T00:05:12.383Z,24.10
2019-01-24T00:06:12.384Z,25.80
2019-01-24T00:07:12.364Z,30.20
2019-01-24T00:08:12.351Z,24.50
2019-01-24T00:09:12.344Z,23.60
2019-01-24T00:10:12.329Z,28.80
2019-01-24T00:11:12.340Z,28.60
2019-01-24T00:12:12.312Z,24.10
2019-01-24T00:13:12.299Z,24.40
2019-01-24T00:14:12.327Z,26.30
2019-01-24T00:15:12.278Z,25.80
2019-01-24T00:16:12.303Z,22.40
2019-01-24T00:17:12.301Z,25.50
2019-01-24T00:18:12.294Z,31.10
2019-01-24T00:19:12.235Z,29.30
2019-01-24T00:20:12.228Z,24.10
2019-01-24T00:21:12.230Z,26.50
2019-01-24T00:22:12.207Z,23.20
2019-01-24T00:23:12.198Z,23.90
2019-01-24T00:24:12.185Z,25.20
2019-01-24T00:25:12.174Z,23.00
2019-01-24T00:26:12.176Z,25.80
2019-01-24T00:27:12.153Z,23.70
2019-01-24T00:28:12.142Z,25.20
2019-01-24T00:29:12.133Z,25.00
2019-01-24T00:30:12.122Z,25.70
2019-01-24T00:31:12.124Z,26.00
2019-01-24T00:32:12.104Z,23.10
2019-01-24T00:33:12.095Z,22.30
2019-01-24T00:34:12.080Z,28.90
2019-01-24T00:35:12.069Z,25.90
2019-01-24T00:36:12.073Z,26.60
2019-01-24T00:37:12.048Z,26.40
2019-01-24T00:38:12.039Z,22.20
2019-01-24T00:39:12.031Z,23.70
2019-01-24T00:40:12.020Z,23.90
2019-01-24T00:41:12.020Z,22.50
2019-01-24T00:42:11.999Z,25.50
2019-01-24T00:43:11.987Z,23.50
2019-01-24T00:44:11.978Z,23.00
2019-01-24T00:45:11.965Z,26.60
2019-01-24T00:46:11.968Z,25.80
2019-01-24T00:47:11.945Z,22.10
2019-01-24T00:48:11.938Z,26.00
2019-01-24T00:49:11.926Z,26.50
2019-01-24T00:50:11.915Z,21.00
2019-01-24T00:51:11.916Z,26.40
2019-01-24T00:52:11.894Z,25.00
2019-01-24T00:53:11.883Z,23.80
2019-01-24T00:54:11.872Z,23.90
2019-01-24T00:55:11.866Z,25.00
2019-01-24T00:56:11.865Z,20.10
2019-01-24T00:57:11.842Z,20.20
2019-01-24T00:58:11.834Z,23.60
2019-01-24T00:59:11.820Z,23.30
2019-01-24T01:00:11.810Z,24.80
2019-01-24T01:01:11.810Z,22.10
2019-01-24T01:02:11.789Z,25.10
2019-01-24T01:03:11.779Z,25.50
2019-01-24T01:04:11.768Z,25.70
2019-01-24T01:05:11.758Z,20.70
2019-01-24T01:06:11.764Z,24.60
2019-01-24T01:07:11.747Z,29.60
2019-01-24T01:08:11.728Z,26.00
2019-01-24T01:09:11.716Z,25.20
2019-01-24T01:10:11.709Z,23.70
2019-01-24T01:11:11.732Z,22.60
2019-01-24T01:12:11.685Z,27.20
2019-01-24T01:13:11.678Z,20.20
2019-01-24T01:14:11.664Z,23.30
2019-01-24T01:15:11.655Z,27.00
2019-01-24T01:16:11.644Z,26.20
2019-01-24T01:17:11.644Z,26.20
2019-01-24T01:18:11.622Z,23.50
2019-01-24T01:19:11.613Z,26.60
2019-01-24T01:20:11.601Z,24.30
2019-01-24T01:21:11.596Z,22.60
2019-01-24T01:22:11.599Z,24.30
2019-01-24T01:23:11.574Z,23.00
2019-01-24T01:24:11.565Z,20.80
2019-01-24T01:25:11.551Z,23.90
2019-01-24T01:26:11.544Z,21.40
2019-01-24T01:27:11.541Z,21.00
2019-01-24T01:28:11.519Z,26.10
2019-01-24T01:29:11.509Z,24.70
2019-01-24T01:30:11.499Z,24.20
2019-01-24T01:31:11.488Z,24.70
2019-01-24T01:32:11.492Z,25.80
2019-01-24T01:33:11.469Z,20.40
2019-01-24T01:34:11.456Z,24.60
2019-01-24T01:35:11.447Z,21.60
2019-01-24T01:36:11.438Z,23.20
2019-01-24T01:37:11.455Z,19.70
2019-01-24T01:38:11.416Z,24.00
2019-01-24T01:39:11.406Z,27.40
2019-01-24T01:40:11.394Z,23.40
2019-01-24T01:41:11.394Z,25.50
2019-01-24T01:42:11.373Z,27.20
2019-01-24T01:43:11.377Z,23.00
2019-01-24T01:44:11.351Z,26.60
2019-01-24T01:45:11.345Z,26.70
2019-01-24T01:46:11.333Z,25.40
2019-01-24T01:47:11.323Z,26.60
2019-01-24T01:48:11.330Z,21.90
2019-01-24T01:49:11.300Z,27.00
2019-01-24T01:50:11.289Z,23.20
2019-01-24T01:51:11.280Z,23.30
2019-01-24T01:52:11.268Z,22.70
2019-01-24T01:53:11.275Z,28.30
2019-01-24T01:54:11.251Z,24.10
2019-01-24T01:55:11.239Z,27.40
2019-01-24T01:56:11.228Z,22.30
2019-01-24T01:57:11.220Z,24.50
2019-01-24T01:58:11.222Z,23.10
2019-01-24T01:59:11.201Z,22.80
2019-01-24T02:00:11.194Z,21.20
2019-01-24T02:01:11.176Z,25.80
2019-01-24T02:02:11.166Z,26.10
2019-01-24T02:03:11.165Z,20.10
2019-01-24T02:04:11.143Z,23.70
2019-01-24T02:05:11.138Z,24.80
2019-01-24T02:06:11.125Z,24.40
2019-01-24T02:07:11.114Z,28.00
2019-01-24T02:08:11.114Z,24.40
2019-01-24T02:09:11.093Z,27.00
2019-01-24T02:10:11.081Z,23.40
2019-01-24T02:11:11.071Z,28.20
2019-01-24T02:12:11.061Z,22.10
2019-01-24T02:13:11.062Z,24.30
2019-01-24T02:14:11.040Z,21.90
2019-01-24T02:15:11.030Z,25.50
2019-01-24T02:16:11.021Z,29.40
2019-01-24T02:17:11.013Z,29.00
2019-01-24T02:18:11.013Z,24.10
2019-01-24T02:19:10.993Z,25.10
2019-01-24T02:20:10.990Z,22.60
2019-01-24T02:21:10.969Z,23.90
2019-01-24T02:22:10.956Z,21.80
2019-01-24T02:23:10.960Z,22.00
2019-01-24T02:24:10.936Z,24.80
2019-01-24T02:25:10.925Z,27.10
2019-01-24T02:26:10.915Z,26.10
2019-01-24T02:27:10.906Z,23.20
2019-01-24T02:28:11.109Z,22.30
2019-01-24T02:29:10.890Z,22.90
2019-01-24T02:30:10.876Z,25.90
2019-01-24T02:31:10.863Z,23.80
2019-01-24T02:32:10.853Z,23.10
2019-01-24T02:33:10.842Z,20.00
2019-01-24T02:34:10.848Z,26.30
2019-01-24T02:35:10.832Z,27.90
2019-01-24T02:36:10.809Z,22.70
2019-01-24T02:37:10.802Z,22.70
2019-01-24T02:38:10.791Z,22.20
2019-01-24T02:39:10.789Z,22.50
2019-01-24T02:40:10.774Z,20.80
2019-01-24T02:41:10.760Z,22.50
2019-01-24T02:42:10.749Z,26.20
2019-01-24T02:43:10.739Z,28.60
2019-01-24T02:44:10.739Z,23.70
2019-01-24T02:45:10.717Z,22.40
2019-01-24T02:46:10.708Z,21.50
2019-01-24T02:47:10.697Z,23.10
2019-01-24T02:48:10.686Z,25.80
2019-01-24T02:49:10.685Z,23.40
2019-01-24T02:50:10.663Z,24.50
2019-01-24T02:51:10.653Z,24.80
2019-01-24T02:52:10.646Z,24.50
2019-01-24T02:53:10.634Z,24.80
2019-01-24T02:54:10.649Z,25.30
2019-01-24T02:55:10.611Z,22.70
2019-01-24T02:56:10.604Z,22.00
2019-01-24T02:57:10.592Z,28.00
2019-01-24T02:58:10.583Z,25.80
2019-01-24T02:59:10.580Z,23.40
2019-01-24T03:00:10.563Z,25.40
2019-01-24T03:01:10.550Z,22.50
2019-01-24T03:02:10.542Z,27.10
2019-01-24T03:03:10.529Z,22.40
2019-01-24T03:04:10.531Z,21.20
2019-01-24T03:05:10.510Z,22.80
2019-01-24T03:06:10.499Z,27.20
2019-01-24T03:07:10.488Z,21.80
2019-01-24T03:08:10.483Z,21.80
2019-01-24T03:09:10.480Z,18.80
2019-01-24T03:10:10.465Z,25.60
2019-01-24T03:11:10.447Z,22.00
2019-01-24T03:12:10.437Z,22.30
2019-01-24T03:13:10.424Z,23.30
2019-01-24T03:14:10.426Z,23.20
2019-01-24T03:15:10.402Z,25.60
2019-01-24T03:16:10.397Z,23.90
2019-01-24T03:17:10.384Z,21.00
2019-01-24T03:18:10.372Z,25.00
2019-01-24T03:19:10.373Z,25.60
2019-01-24T03:20:10.352Z,25.60
2019-01-24T03:21:10.344Z,29.30
2019-01-24T03:22:10.331Z,27.10
2019-01-24T03:23:10.322Z,23.90
2019-01-24T03:24:10.348Z,22.90
2019-01-24T03:25:10.297Z,24.70
2019-01-24T03:26:10.289Z,20.70
2019-01-24T03:27:10.283Z,22.80
2019-01-24T03:28:10.267Z,22.90
2019-01-24T03:29:10.262Z,22.10
2019-01-24T03:30:10.259Z,19.90
2019-01-24T03:31:10.239Z,23.50
2019-01-24T03:32:10.231Z,24.20
2019-01-24T03:33:10.216Z,23.80
2019-01-24T03:34:10.205Z,23.10
2019-01-24T03:35:10.205Z,26.40
2019-01-24T03:36:10.197Z,24.00
2019-01-24T03:37:10.175Z,22.70
2019-01-24T03:38:10.166Z,27.10
2019-01-24T03:39:10.152Z,31.20
2019-01-24T03:40:10.161Z,22.30
2019-01-24T03:41:10.136Z,21.70
2019-01-24T03:42:10.121Z,23.20
2019-01-24T03:43:10.109Z,21.50
2019-01-24T03:44:10.104Z,22.60
2019-01-24T03:45:10.100Z,23.20
2019-01-24T03:46:10.078Z,21.10
2019-01-24T03:47:10.071Z,24.90
2019-01-24T03:48:10.058Z,25.50
2019-01-24T03:49:10.049Z,24.10
2019-01-24T03:50:10.053Z,21.50
2019-01-24T03:51:10.028Z,23.00
2019-01-24T03:52:10.017Z,27.30
2019-01-24T03:53:10.012Z,25.50
2019-01-24T03:54:09.997Z,23.70
2019-01-24T03:55:10.011Z,24.00
2019-01-24T03:56:09.979Z,27.30
2019-01-24T03:57:09.968Z,22.00
2019-01-24T03:58:09.954Z,20.80
2019-01-24T03:59:09.947Z,26.20
2019-01-24T04:00:09.956Z,22.60
2019-01-24T04:01:09.928Z,22.70
2019-01-24T04:02:09.913Z,27.20
2019-01-24T04:03:09.906Z,26.80
2019-01-24T04:04:09.895Z,26.10
2019-01-24T04:05:11.935Z,28.30
2019-01-24T04:06:09.872Z,24.40
2019-01-24T04:07:09.863Z,22.70
2019-01-24T04:08:09.850Z,25.20
2019-01-24T04:09:09.843Z,23.40
2019-01-24T04:10:09.843Z,23.90
2019-01-24T04:11:09.821Z,33.10
2019-01-24T04:12:09.811Z,27.60
2019-01-24T04:13:09.804Z,27.90
2019-01-24T04:14:09.787Z,22.00
2019-01-24T04:15:09.789Z,23.90
2019-01-24T04:16:09.766Z,26.40
2019-01-24T04:17:09.760Z,26.40
2019-01-24T04:18:09.746Z,24.80
2019-01-24T04:19:09.735Z,25.60
2019-01-24T04:20:09.737Z,24.20
2019-01-24T04:21:09.714Z,25.30
2019-01-24T04:22:09.703Z,23.40
2019-01-24T04:23:09.693Z,24.60
2019-01-24T04:24:09.682Z,22.30
2019-01-24T04:25:09.688Z,28.60
2019-01-24T04:26:09.661Z,25.90
2019-01-24T04:27:09.653Z,26.10
2019-01-24T04:28:09.643Z,26.90
2019-01-24T04:29:09.635Z,26.20
2019-01-24T04:30:09.631Z,29.40
2019-01-24T04:31:09.615Z,26.30
2019-01-24T04:32:09.601Z,28.30
2019-01-24T04:33:09.594Z,30.60
2019-01-24T04:34:09.579Z,30.80
2019-01-24T04:35:09.585Z,23.90
2019-01-24T04:36:09.563Z,29.60
2019-01-24T04:37:09.549Z,31.30
2019-01-24T04:38:09.543Z,22.50
2019-01-24T04:39:09.534Z,31.40
2019-01-24T04:40:09.529Z,24.30
2019-01-24T04:41:09.509Z,27.80
2019-01-24T04:42:09.495Z,25.60
2019-01-24T04:43:09.486Z,24.20
2019-01-24T04:44:09.474Z,23.50
2019-01-24T04:45:09.476Z,30.10
2019-01-24T04:46:09.456Z,28.70
2019-01-24T04:47:09.447Z,26.00
2019-01-24T04:48:09.434Z,27.20
2019-01-24T04:49:09.423Z,28.10
2019-01-24T04:50:09.422Z,26.80
2019-01-24T04:51:09.407Z,26.10
2019-01-24T04:52:09.393Z,26.30
2019-01-24T04:53:09.381Z,27.80
2019-01-24T04:54:09.373Z,26.50
2019-01-24T04:55:09.369Z,27.60
2019-01-24T04:56:09.362Z,26.90
2019-01-24T04:57:09.340Z,35.20
2019-01-24T04:58:09.331Z,28.00
2019-01-24T04:59:09.320Z,25.70
2019-01-24T05:00:09.322Z,21.10
2019-01-24T05:01:09.300Z,25.00
2019-01-24T05:02:09.288Z,24.70
2019-01-24T05:03:09.278Z,26.40
2019-01-24T05:04:09.271Z,24.20
2019-01-24T05:05:09.269Z,27.00
2019-01-24T05:06:09.253Z,23.80
2019-01-24T05:07:09.248Z,26.40
2019-01-24T05:08:09.227Z,27.20
2019-01-24T05:09:09.218Z,24.90
2019-01-24T05:10:09.219Z,28.70
2019-01-24T05:11:09.194Z,24.60
2019-01-24T05:12:09.185Z,25.20
2019-01-24T05:13:09.172Z,28.60
2019-01-24T05:14:09.163Z,25.60
2019-01-24T05:15:09.174Z,29.50
2019-01-24T05:16:09.143Z,28.50
2019-01-24T05:17:09.137Z,27.20
2019-01-24T05:18:09.128Z,27.30
2019-01-24T05:19:09.111Z,28.20
2019-01-24T05:20:09.118Z,31.30
2019-01-24T05:21:09.091Z,26.60
2019-01-24T05:22:09.081Z,29.90
2019-01-24T05:23:09.075Z,22.10
2019-01-24T05:24:09.061Z,29.00
2019-01-24T05:25:09.058Z,31.70
2019-01-24T05:26:09.039Z,24.60
2019-01-24T05:27:09.028Z,28.60
2019-01-24T05:28:09.016Z,32.20
2019-01-24T05:29:09.007Z,23.80
2019-01-24T05:30:09.005Z,30.40
2019-01-24T05:31:08.984Z,26.20
2019-01-24T05:32:08.975Z,26.80
2019-01-24T05:33:08.963Z,28.30
2019-01-24T05:34:08.955Z,26.20
2019-01-24T05:35:08.959Z,27.30
2019-01-24T05:36:08.935Z,24.70
2019-01-24T05:37:08.925Z,23.50
2019-01-24T05:38:08.912Z,33.30
2019-01-24T05:39:08.904Z,28.40
2019-01-24T05:40:08.939Z,29.80
2019-01-24T05:41:08.882Z,22.80
2019-01-24T05:42:08.873Z,27.80
2019-01-24T05:43:08.860Z,26.60
2019-01-24T05:44:08.851Z,22.30
2019-01-24T05:45:08.839Z,26.20
2019-01-24T05:46:08.841Z,28.80
2019-01-24T05:47:08.818Z,24.40
2019-01-24T05:48:08.809Z,26.50
2019-01-24T05:49:08.797Z,22.20
2019-01-24T05:50:08.788Z,23.70
2019-01-24T05:51:08.787Z,22.40
2019-01-24T05:52:08.768Z,22.50
2019-01-24T05:53:08.783Z,28.10
2019-01-24T05:54:08.746Z,27.10
2019-01-24T05:55:08.778Z,26.60
2019-01-24T05:56:08.735Z,25.60
2019-01-24T05:57:08.714Z,21.40
2019-01-24T05:58:08.711Z,29.40
2019-01-24T05:59:08.694Z,23.60
2019-01-24T06:00:08.687Z,28.70
2019-01-24T06:01:08.683Z,24.30
2019-01-24T06:02:08.664Z,24.40
2019-01-24T06:03:08.656Z,31.10
2019-01-24T06:04:08.644Z,24.70
2019-01-24T06:05:08.630Z,25.50
2019-01-24T06:06:08.631Z,26.40
2019-01-24T06:07:08.611Z,27.90
2019-01-24T06:08:08.599Z,25.80
2019-01-24T06:09:08.592Z,23.60
2019-01-24T06:10:08.585Z,26.40
2019-01-24T06:11:08.581Z,24.20
2019-01-24T06:12:08.559Z,27.00
2019-01-24T06:13:08.551Z,22.20
2019-01-24T06:14:08.536Z,26.70
2019-01-24T06:15:08.526Z,31.20
2019-01-24T06:16:08.533Z,23.10
2019-01-24T06:17:08.507Z,25.00
2019-01-24T06:18:08.495Z,25.90
2019-01-24T06:19:08.485Z,22.50
2019-01-24T06:20:08.475Z,23.00
2019-01-24T06:21:08.477Z,20.50
2019-01-24T06:22:08.458Z,24.50
2019-01-24T06:23:08.445Z,29.50
2019-01-24T06:24:08.437Z,22.20
2019-01-24T06:25:08.424Z,30.90
2019-01-24T06:26:08.426Z,20.90
2019-01-24T06:27:08.402Z,24.60
2019-01-24T06:28:08.392Z,22.90
2019-01-24T06:29:08.382Z,25.00
2019-01-24T06:30:08.370Z,20.20
2019-01-24T06:31:08.372Z,24.00
2019-01-24T06:32:08.352Z,22.20
2019-01-24T06:33:08.345Z,25.80
2019-01-24T06:34:08.328Z,21.40
2019-01-24T06:35:08.320Z,21.30
2019-01-24T06:36:08.654Z,20.80
2019-01-24T06:37:08.300Z,24.20
2019-01-24T06:38:08.287Z,25.40
2019-01-24T06:39:08.277Z,23.00
2019-01-24T06:40:08.265Z,26.60
2019-01-24T06:41:08.652Z,25.00
2019-01-24T06:42:08.260Z,26.70
2019-01-24T06:43:08.236Z,24.90
2019-01-24T06:44:08.228Z,19.90
2019-01-24T06:45:08.214Z,23.80
2019-01-24T06:46:08.217Z,22.50
2019-01-24T06:47:08.193Z,25.00
2019-01-24T06:48:08.182Z,24.10
2019-01-24T06:49:08.173Z,20.00
2019-01-24T06:50:08.169Z,26.60
2019-01-24T06:51:08.205Z,23.80
2019-01-24T06:52:08.169Z,23.70
2019-01-24T06:53:08.132Z,25.50
2019-01-24T06:54:08.125Z,20.00
2019-01-24T06:55:08.109Z,22.70
2019-01-24T06:56:08.155Z,20.90
2019-01-24T06:57:08.088Z,22.40
2019-01-24T06:58:08.079Z,20.90
2019-01-24T06:59:08.069Z,22.40
2019-01-24T07:00:08.061Z,25.20
2019-01-24T07:01:08.059Z,17.70
2019-01-24T07:02:08.037Z,21.10
2019-01-24T07:03:08.028Z,18.90
2019-01-24T07:04:08.015Z,17.70
2019-01-24T07:05:08.025Z,17.70
2019-01-24T07:06:08.073Z,19.80
2019-01-24T07:07:07.986Z,17.40
2019-01-24T07:08:07.973Z,18.00
2019-01-24T07:09:07.964Z,21.00
2019-01-24T07:10:07.954Z,19.10
2019-01-24T07:11:07.979Z,22.10
2019-01-24T07:12:07.933Z,17.40
2019-01-24T07:13:07.927Z,21.80
2019-01-24T07:14:07.915Z,18.90
2019-01-24T07:15:07.905Z,19.90
2019-01-24T07:16:07.903Z,19.40
2019-01-24T07:17:07.880Z,19.30
2019-01-24T07:18:07.871Z,18.60
2019-01-24T07:19:07.863Z,18.20
2019-01-24T07:20:07.848Z,17.30
2019-01-24T07:21:08.150Z,18.60
2019-01-24T07:22:07.828Z,19.30
2019-01-24T07:23:07.818Z,18.50
2019-01-24T07:24:07.807Z,19.20
2019-01-24T07:25:07.798Z,20.00
2019-01-24T07:26:07.802Z,19.60
2019-01-24T07:27:07.779Z,19.00
2019-01-24T07:28:07.766Z,18.60
2019-01-24T07:29:07.755Z,19.00
2019-01-24T07:30:07.747Z,20.60
2019-01-24T07:31:07.750Z,19.20
2019-01-24T07:32:07.726Z,19.30
2019-01-24T07:33:07.714Z,17.10
2019-01-24T07:34:07.703Z,19.40
2019-01-24T07:35:07.694Z,20.00
2019-01-24T07:36:07.694Z,18.20
2019-01-24T07:37:07.683Z,18.40
2019-01-24T07:38:07.662Z,20.30
2019-01-24T07:39:07.654Z,16.40
2019-01-24T07:40:07.648Z,17.50
2019-01-24T07:41:07.650Z,16.70
2019-01-24T07:42:07.631Z,20.80
2019-01-24T07:43:07.609Z,18.30
2019-01-24T07:44:07.599Z,19.50
2019-01-24T07:45:07.590Z,22.90
2019-01-24T07:46:07.591Z,17.90
2019-01-24T07:47:07.569Z,20.10
2019-01-24T07:48:07.559Z,22.10
2019-01-24T07:49:07.547Z,20.00
2019-01-24T07:50:07.540Z,18.60
2019-01-24T07:51:07.556Z,19.30
2019-01-24T07:52:07.516Z,20.50
2019-01-24T07:53:07.505Z,20.60
2019-01-24T07:54:07.495Z,19.60
2019-01-24T07:55:07.487Z,21.30
2019-01-24T07:56:07.495Z,18.20
2019-01-24T07:57:07.464Z,22.50
2019-01-24T07:58:07.460Z,20.80
2019-01-24T07:59:07.443Z,17.30
2019-01-24T08:00:07.434Z,19.60
2019-01-24T08:01:07.443Z,25.80
2019-01-24T08:02:07.414Z,23.20
2019-01-24T08:03:07.426Z,19.80
2019-01-24T08:04:07.389Z,24.60
2019-01-24T08:05:07.381Z,17.40
2019-01-24T08:06:09.142Z,20.80
2019-01-24T08:07:07.362Z,19.50
2019-01-24T08:08:07.351Z,24.00
2019-01-24T08:09:07.342Z,19.70
2019-01-24T08:10:07.334Z,20.80
2019-01-24T08:11:07.432Z,18.50
2019-01-24T08:12:07.315Z,18.70
2019-01-24T08:13:07.297Z,23.10
2019-01-24T08:14:08.349Z,23.40
2019-01-24T08:15:07.307Z,19.40
2019-01-24T08:16:07.283Z,21.30
2019-01-24T08:17:07.260Z,23.00
2019-01-24T08:18:07.245Z,20.10
2019-01-24T08:19:07.233Z,21.20
2019-01-24T08:20:07.224Z,19.90
2019-01-24T08:21:07.214Z,20.90
2019-01-24T08:22:07.229Z,20.00
2019-01-24T08:23:07.193Z,18.50
2019-01-24T08:24:07.182Z,18.90
2019-01-24T08:25:07.171Z,18.00
2019-01-24T08:26:07.165Z,18.00
2019-01-24T08:27:07.187Z,20.80
2019-01-24T08:28:07.143Z,18.70
2019-01-24T08:29:07.132Z,17.50
2019-01-24T08:30:07.122Z,15.70
2019-01-24T08:31:07.111Z,15.80
2019-01-24T08:32:07.126Z,16.20
2019-01-24T08:33:07.091Z,17.10
2019-01-24T08:34:07.079Z,18.90
2019-01-24T08:35:07.068Z,19.40
2019-01-24T08:36:07.057Z,16.30
2019-01-24T08:37:07.057Z,19.10
2019-01-24T08:38:07.034Z,16.60
2019-01-24T08:39:07.025Z,18.40
2019-01-24T08:40:07.018Z,18.30
2019-01-24T08:41:07.011Z,20.80
2019-01-24T08:42:07.018Z,17.70
2019-01-24T08:43:06.982Z,12.50
2019-01-24T08:44:06.974Z,23.60
2019-01-24T08:45:06.965Z,16.30
2019-01-24T08:46:06.956Z,20.10
2019-01-24T08:47:07.780Z,18.70
2019-01-24T08:48:06.944Z,21.30
2019-01-24T08:49:06.922Z,20.80
2019-01-24T08:50:06.908Z,16.20
2019-01-24T08:51:06.898Z,18.80
2019-01-24T08:52:06.901Z,18.30
2019-01-24T08:53:06.879Z,15.10
2019-01-24T08:54:06.935Z,24.20
2019-01-24T08:55:06.859Z,26.00
2019-01-24T08:56:06.848Z,19.50
2019-01-24T08:57:06.848Z,14.80
2019-01-24T08:58:06.830Z,17.80
2019-01-24T08:59:06.816Z,18.90
2019-01-24T09:00:06.813Z,17.00
2019-01-24T09:01:06.797Z,21.70
2019-01-24T09:02:06.797Z,19.70
2019-01-24T09:03:06.774Z,19.60
2019-01-24T09:04:06.766Z,16.40
2019-01-24T09:05:06.753Z,21.40
2019-01-24T09:06:06.743Z,18.90
2019-01-24T09:07:06.744Z,19.30
2019-01-24T09:08:06.722Z,15.00
2019-01-24T09:09:06.713Z,18.10
2019-01-24T09:10:06.713Z,22.70
2019-01-24T09:11:06.693Z,18.70
2019-01-24T09:12:06.691Z,19.30
2019-01-24T09:13:06.671Z,21.20
2019-01-24T09:14:06.661Z,22.30
2019-01-24T09:15:06.654Z,22.40
2019-01-24T09:16:06.642Z,15.80
2019-01-24T09:17:06.638Z,22.10
2019-01-24T09:18:06.618Z,21.20
2019-01-24T09:19:06.606Z,21.00
2019-01-24T09:20:06.597Z,21.60
2019-01-24T09:21:06.610Z,24.40
2019-01-24T09:22:06.590Z,21.00
2019-01-24T09:23:06.565Z,21.00
2019-01-24T09:24:06.553Z,20.30
2019-01-24T09:25:06.545Z,19.40
2019-01-24T09:26:06.536Z,20.90
2019-01-24T09:27:06.535Z,22.60
2019-01-24T09:28:06.513Z,22.30
2019-01-24T09:29:06.503Z,17.10
2019-01-24T09:30:06.493Z,19.00
2019-01-24T09:31:06.485Z,19.60
2019-01-24T09:32:06.480Z,21.30
2019-01-24T09:33:06.477Z,26.20
2019-01-24T09:34:06.484Z,19.00
2019-01-24T09:35:06.440Z,19.60
2019-01-24T09:36:06.430Z,25.00
2019-01-24T09:37:06.430Z,19.80
2019-01-24T09:38:06.415Z,22.10
2019-01-24T09:39:06.499Z,23.40
2019-01-24T09:40:06.389Z,18.90
2019-01-24T09:41:06.378Z,17.60
2019-01-24T09:42:06.386Z,20.60
2019-01-24T09:43:06.358Z,23.10
2019-01-24T09:44:06.352Z,21.90
2019-01-24T09:45:06.335Z,22.30
2019-01-24T09:46:06.324Z,20.80
2019-01-24T09:47:06.331Z,22.10
2019-01-24T09:48:06.306Z,22.20
2019-01-24T09:49:06.292Z,18.80
2019-01-24T09:50:06.287Z,19.10
2019-01-24T09:51:06.273Z,21.10
2019-01-24T09:52:06.281Z,20.20
2019-01-24T09:53:06.250Z,23.60
2019-01-24T09:54:06.242Z,23.60
2019-01-24T09:55:06.233Z,19.90
2019-01-24T09:56:06.220Z,19.50
2019-01-24T09:57:06.225Z,21.60
2019-01-24T09:58:06.200Z,20.80
2019-01-24T09:59:06.187Z,21.90
2019-01-24T10:00:06.177Z,19.70
2019-01-24T10:01:06.170Z,20.00
2019-01-24T10:02:06.174Z,20.20
2019-01-24T10:03:06.147Z,18.90
2019-01-24T10:04:06.135Z,20.90
2019-01-24T10:05:06.128Z,20.50
2019-01-24T10:06:06.115Z,20.50
2019-01-24T10:07:06.114Z,21.40
2019-01-24T10:08:06.093Z,20.00
2019-01-24T10:09:06.085Z,18.10
2019-01-24T10:10:06.077Z,19.30
2019-01-24T10:11:06.065Z,19.90
2019-01-24T10:12:06.151Z,18.40
2019-01-24T10:13:06.048Z,18.70
2019-01-24T10:14:06.033Z,19.10
2019-01-24T10:15:06.021Z,20.50
2019-01-24T10:16:06.012Z,21.40
2019-01-24T10:17:06.011Z,19.90
2019-01-24T10:18:05.987Z,23.30
2019-01-24T10:19:05.980Z,20.60
2019-01-24T10:20:05.977Z,23.90
2019-01-24T10:21:05.958Z,19.20
2019-01-24T10:22:05.964Z,19.00
2019-01-24T10:23:05.937Z,19.30
2019-01-24T10:24:05.930Z,15.80
2019-01-24T10:25:05.917Z,24.10
2019-01-24T10:26:05.936Z,18.60
2019-01-24T10:27:05.905Z,24.80
2019-01-24T10:28:05.883Z,25.60
2019-01-24T10:29:05.874Z,20.40
2019-01-24T10:30:05.863Z,25.40
2019-01-24T10:31:05.856Z,20.10
2019-01-24T10:32:05.857Z,22.60
2019-01-24T10:33:05.832Z,22.90
2019-01-24T10:34:05.821Z,23.60
2019-01-24T10:35:05.813Z,19.10
2019-01-24T10:36:05.805Z,20.50
2019-01-24T10:37:05.810Z,19.70
2019-01-24T10:38:05.780Z,17.60
2019-01-24T10:39:05.768Z,19.60
2019-01-24T10:40:05.762Z,22.40
2019-01-24T10:41:05.750Z,18.50
2019-01-24T10:42:05.748Z,16.70
2019-01-24T10:43:05.726Z,25.10
2019-01-24T10:44:05.718Z,21.00
2019-01-24T10:45:05.757Z,20.50
2019-01-24T10:46:05.697Z,21.80
2019-01-24T10:47:05.722Z,19.30
2019-01-24T10:48:05.683Z,18.10
2019-01-24T10:49:05.670Z,21.10
2019-01-24T10:50:05.653Z,18.00
2019-01-24T10:51:05.648Z,24.30
2019-01-24T10:52:05.643Z,18.90
2019-01-24T10:53:05.625Z,20.40
2019-01-24T10:54:05.617Z,23.00
2019-01-24T10:55:05.603Z,22.60
2019-01-24T10:56:05.593Z,20.30
2019-01-24T10:57:05.610Z,22.20
2019-01-24T10:58:05.573Z,22.90
2019-01-24T10:59:05.561Z,21.40
2019-01-24T11:00:05.550Z,21.40
2019-01-24T11:01:05.540Z,21.20
2019-01-24T11:02:05.580Z,20.80
2019-01-24T11:03:05.518Z,23.20
2019-01-24T11:04:05.507Z,21.90
2019-01-24T11:05:05.498Z,21.10
2019-01-24T11:06:05.491Z,23.70
2019-01-24T11:07:05.475Z,22.50
2019-01-24T11:08:05.479Z,21.90
2019-01-24T11:09:05.457Z,21.50
2019-01-24T11:10:05.450Z,25.00
2019-01-24T11:11:05.440Z,24.10
2019-01-24T11:12:05.424Z,19.40
2019-01-24T11:13:05.429Z,19.20
2019-01-24T11:14:05.402Z,23.60
2019-01-24T11:15:05.396Z,21.10
2019-01-24T11:16:05.382Z,16.00
2019-01-24T11:17:05.400Z,19.00
2019-01-24T11:18:05.375Z,22.40
2019-01-24T11:19:05.353Z,25.70
2019-01-24T11:20:05.339Z,19.50
2019-01-24T11:21:05.333Z,22.80
2019-01-24T11:22:05.319Z,19.40
2019-01-24T11:23:05.322Z,23.90
2019-01-24T11:24:05.300Z,24.50
2019-01-24T11:25:05.287Z,27.40
2019-01-24T11:26:05.276Z,18.90
2019-01-24T11:27:05.289Z,21.20
2019-01-24T11:28:05.267Z,23.50
2019-01-24T11:29:05.249Z,18.80
2019-01-24T11:30:05.237Z,19.00
2019-01-24T11:31:05.226Z,22.70
2019-01-24T11:32:05.218Z,21.30
2019-01-24T11:33:05.215Z,24.80
2019-01-24T11:34:05.195Z,22.60
2019-01-24T11:35:05.185Z,21.80
2019-01-24T11:36:05.173Z,21.30
2019-01-24T11:37:05.166Z,22.00
2019-01-24T11:38:05.162Z,21.90
2019-01-24T11:39:05.142Z,20.80
2019-01-24T11:40:05.134Z,22.10
2019-01-24T11:41:05.122Z,22.80
2019-01-24T11:42:05.114Z,21.10
2019-01-24T11:43:05.112Z,22.40
2019-01-24T11:44:05.092Z,22.40
2019-01-24T11:45:05.083Z,23.90
2019-01-24T11:46:05.070Z,23.90
2019-01-24T11:47:05.058Z,24.20
2019-01-24T11:48:05.061Z,22.90
2019-01-24T11:49:05.040Z,20.00
2019-01-24T11:50:05.030Z,19.80
2019-01-24T11:51:05.030Z,20.70
2019-01-24T11:52:05.005Z,19.40
2019-01-24T11:53:05.009Z,20.90
2019-01-24T11:54:04.993Z,26.10
2019-01-24T11:55:04.975Z,24.80
2019-01-24T11:56:06.265Z,20.90
2019-01-24T11:57:04.958Z,22.80
2019-01-24T11:58:04.958Z,27.60
2019-01-24T11:59:04.934Z,27.70
2019-01-24T12:00:04.924Z,27.10
2019-01-24T12:01:04.914Z,30.40
2019-01-24T12:02:04.902Z,25.70
2019-01-24T12:03:04.903Z,28.30
2019-01-24T12:04:04.885Z,23.90
2019-01-24T12:05:04.871Z,27.60
2019-01-24T12:06:04.862Z,24.20
2019-01-24T12:07:04.853Z,32.20
2019-01-24T12:08:04.851Z,25.70
2019-01-24T12:09:04.833Z,28.40
2019-01-24T12:10:04.818Z,28.30
2019-01-24T12:11:04.809Z,24.80
2019-01-24T12:12:04.798Z,27.60
2019-01-24T12:13:04.801Z,26.70
2019-01-24T12:14:04.776Z,29.40
2019-01-24T12:15:04.766Z,25.80
2019-01-24T12:16:04.755Z,28.40
2019-01-24T12:17:04.744Z,30.80
2019-01-24T12:18:04.746Z,28.00
2019-01-24T12:19:04.723Z,26.10
2019-01-24T12:20:04.713Z,30.00
2019-01-24T12:21:04.705Z,27.00
2019-01-24T12:22:04.692Z,32.80
2019-01-24T12:23:04.740Z,30.70
2019-01-24T12:24:04.673Z,37.70
2019-01-24T12:25:04.662Z,30.80
2019-01-24T12:26:04.656Z,32.10
2019-01-24T12:27:04.647Z,28.70
2019-01-24T12:28:04.642Z,25.90
2019-01-24T12:29:04.623Z,27.60
2019-01-24T12:30:04.614Z,26.50
2019-01-24T12:31:04.599Z,34.60
2019-01-24T12:32:04.587Z,28.60
2019-01-24T12:33:04.588Z,30.80
2019-01-24T12:34:04.566Z,30.30
2019-01-24T12:35:04.561Z,30.90
2019-01-24T12:36:04.550Z,27.90
2019-01-24T12:37:11.113Z,28.90
2019-01-24T12:38:05.538Z,29.30
2019-01-24T12:39:04.749Z,34.80
2019-01-24T12:40:04.639Z,31.30
2019-01-24T12:41:04.580Z,32.60
2019-01-24T12:42:04.632Z,29.50
2019-01-24T12:43:04.497Z,34.30
2019-01-24T12:44:04.469Z,33.40
2019-01-24T12:45:04.454Z,33.40
2019-01-24T12:46:04.441Z,32.40
2019-01-24T12:47:04.432Z,28.00
2019-01-24T12:48:04.434Z,37.70
2019-01-24T12:49:04.416Z,30.30
2019-01-24T12:50:04.403Z,33.70
2019-01-24T12:51:04.391Z,33.20
2019-01-24T12:52:04.380Z,30.90